createdAt,value
2022-11-09T00:03:45.868Z,77.4
2022-11-09T00:09:22.276Z,77.9
2022-11-09T00:14:57.726Z,78.3
2022-11-09T00:20:32.830Z,78.6
2022-11-09T00:26:08.530Z,78.3
2022-11-09T00:31:43.357Z,77.5
2022-11-09T00:37:18.705Z,77.2
2022-11-09T00:42:54.466Z,77.5
2022-11-09T00:48:55.501Z,77.9
2022-11-09T00:54:27.986Z,78.2
2022-11-09T01:00:03.116Z,78.5
2022-11-09T01:05:38.404Z,78.6
2022-11-09T01:11:14.295Z,78.9
2022-11-09T01:16:49.341Z,78.9
2022-11-09T01:22:24.351Z,79
2022-11-09T01:27:59.283Z,77.7
2022-11-09T01:33:33.981Z,77.4
2022-11-09T01:39:08.860Z,77.6
2022-11-09T01:44:44.494Z,77.7
2022-11-09T01:50:19.898Z,77.4
2022-11-09T01:55:54.929Z,77.7
2022-11-09T02:01:30.117Z,78.1
2022-11-09T02:07:05.868Z,78.3
2022-11-09T02:12:42.221Z,78.6
2022-11-09T02:18:17.147Z,78.4
2022-11-09T02:23:52.206Z,78.4
2022-11-09T02:29:27.252Z,78.3
2022-11-09T02:35:02.801Z,78.5
2022-11-09T02:40:44.698Z,78.5
2022-11-09T02:46:41.677Z,78.2
2022-11-09T02:52:15.151Z,78
2022-11-09T02:57:50.353Z,77.9
2022-11-09T03:03:25.147Z,78.3
2022-11-09T03:08:59.989Z,78.2
2022-11-09T03:14:35.064Z,78.3
2022-11-09T03:20:09.959Z,78.2
2022-11-09T03:25:45.079Z,77.9
2022-11-09T03:31:21.307Z,77.1
2022-11-09T03:36:57.311Z,77.1
2022-11-09T03:42:32.294Z,77.6
2022-11-09T03:48:29.150Z,77.8
2022-11-09T03:54:03.505Z,77.6
2022-11-09T03:59:38.410Z,77.5
2022-11-09T04:05:13.374Z,77.7
2022-11-09T04:10:48.685Z,77.9
2022-11-09T04:16:24.574Z,78.1
2022-11-09T04:21:59.409Z,78.2
2022-11-09T04:27:34.837Z,78.3
2022-11-09T04:33:11.212Z,78.1
2022-11-09T04:38:46.339Z,78.1
2022-11-09T04:44:21.192Z,78.3
2022-11-09T04:49:57.105Z,78.3
2022-11-09T04:55:32.432Z,78.3
2022-11-09T05:01:07.592Z,78.3
2022-11-09T05:06:43.257Z,78.1
2022-11-09T05:12:20.668Z,78.2
2022-11-09T05:17:56.833Z,78.2
2022-11-09T05:23:32.040Z,77.7
2022-11-09T05:29:07.168Z,77.2
2022-11-09T05:34:42.480Z,77
2022-11-09T05:40:18.245Z,76.7
2022-11-09T05:45:53.312Z,76.8
2022-11-09T05:51:29.198Z,77.1
2022-11-09T05:57:04.558Z,77.6
2022-11-09T06:02:39.659Z,77.7
2022-11-09T06:08:16.699Z,77.6
2022-11-09T06:13:51.784Z,77.5
2022-11-09T06:19:27.917Z,77.5
2022-11-09T06:25:03.593Z,77.4
2022-11-09T06:30:38.844Z,77.4
2022-11-09T06:36:14.897Z,77.9
2022-11-09T06:41:49.952Z,77.9
2022-11-09T06:47:46.817Z,77.8
2022-11-09T06:53:20.488Z,77.9
2022-11-09T06:59:01.184Z,78
2022-11-09T07:04:37.004Z,78.1
2022-11-09T07:10:12.022Z,78
2022-11-09T07:15:48.518Z,78.1
2022-11-09T07:21:23.698Z,78
2022-11-09T07:26:58.573Z,78.4
2022-11-09T07:33:09.867Z,78.9
2022-11-09T07:38:46.345Z,79
2022-11-09T07:44:22.094Z,79.4
2022-11-09T07:49:57.817Z,79.8
2022-11-09T07:55:33.923Z,80
2022-11-09T08:01:09.969Z,79.9
2022-11-09T08:06:45.208Z,79.7
2022-11-09T08:12:20.989Z,79.9
2022-11-09T08:17:56.913Z,80.2
2022-11-09T08:23:31.769Z,80
2022-11-09T08:29:06.983Z,80.1
2022-11-09T08:34:42.712Z,79.9
2022-11-09T08:40:17.903Z,80.2
2022-11-09T08:45:53.541Z,81.6
2022-11-09T08:51:29.458Z,77.8
2022-11-09T08:57:06.096Z,76.5
2022-11-09T09:02:42.070Z,76.6
2022-11-09T09:08:17.272Z,77
2022-11-09T09:13:54.811Z,75.5
2022-11-09T09:19:29.803Z,76.2
2022-11-09T09:25:05.117Z,76.3
2022-11-09T09:30:40.243Z,77.2
2022-11-09T09:36:15.391Z,77
2022-11-09T09:41:50.244Z,77.4
2022-11-09T09:47:25.317Z,77.9
2022-11-09T09:53:24.510Z,77.7
2022-11-09T09:59:01.274Z,79.7
2022-11-09T10:04:36.751Z,79.8
2022-11-09T10:10:13.621Z,81.5
2022-11-09T10:15:48.721Z,82.2
2022-11-09T10:21:23.617Z,82.8
2022-11-09T10:26:59.666Z,80.3
2022-11-09T10:32:34.803Z,80.2
2022-11-09T10:38:10.900Z,79.9
2022-11-09T10:43:47.397Z,78.5
2022-11-09T10:49:22.441Z,80
2022-11-09T10:54:57.726Z,80.2
2022-11-09T11:00:32.881Z,79.2
2022-11-09T11:06:08.600Z,78.8
2022-11-09T11:11:43.825Z,80
2022-11-09T11:17:18.900Z,78.4
2022-11-09T11:22:54.730Z,75.8
2022-11-09T11:28:30.293Z,77.7
2022-11-09T11:34:05.283Z,76.3
2022-11-09T11:39:40.281Z,77.7
2022-11-09T11:45:42.341Z,75.9
2022-11-09T11:51:17.775Z,73.6
2022-11-09T11:56:53.097Z,73.9
2022-11-09T12:02:28.810Z,76.2
2022-11-09T12:08:04.967Z,76.3
2022-11-09T12:13:39.896Z,78.5
2022-11-09T12:19:32.798Z,85.1
2022-11-09T12:25:11.394Z,86.1
2022-11-09T12:30:46.622Z,84
2022-11-09T12:36:22.253Z,82.3
2022-11-09T12:41:58.152Z,80.9
2022-11-09T12:47:32.886Z,82.1
2022-11-09T12:53:08.777Z,83
2022-11-09T12:58:43.786Z,82.7
2022-11-09T13:04:18.984Z,83
2022-11-09T13:09:55.221Z,83.8
2022-11-09T13:15:29.928Z,81.5
2022-11-09T13:21:05.581Z,80.4
2022-11-09T13:26:40.949Z,79.8
2022-11-09T13:32:17.136Z,78.8
2022-11-09T13:37:51.995Z,79.4
2022-11-09T13:43:29.409Z,79.9
2022-11-09T13:49:05.176Z,81
2022-11-09T13:54:41.032Z,80.1
2022-11-09T14:00:16.426Z,80.2
2022-11-09T14:05:53.289Z,81.2
2022-11-09T14:11:30.780Z,79.9
2022-11-09T14:17:07.896Z,80.1
2022-11-09T14:22:43.992Z,82.8
2022-11-09T14:28:26.001Z,81.4
2022-11-09T14:34:03.814Z,82.7
2022-11-09T14:39:46.168Z,82.1
2022-11-09T14:45:22.538Z,83.1
2022-11-09T14:50:58.387Z,82.3
2022-11-09T14:56:33.891Z,82.8
2022-11-09T15:02:15.619Z,82.4
2022-11-09T15:07:58.332Z,81.6
2022-11-09T15:13:50.131Z,81.8
2022-11-09T15:19:43.669Z,81.6
2022-11-09T15:25:19.630Z,81.1
2022-11-09T15:31:00.144Z,80.9
2022-11-09T15:36:46.560Z,81
2022-11-09T15:42:34.000Z,83.8
2022-11-09T15:48:30.081Z,83.4
2022-11-09T15:54:21.140Z,82.7
2022-11-09T15:59:56.317Z,83.8
2022-11-09T16:05:31.552Z,84.6
2022-11-09T16:11:06.590Z,85
2022-11-09T16:16:41.577Z,85.2
2022-11-09T16:22:16.390Z,84.8
2022-11-09T16:27:52.674Z,85.2
2022-11-09T16:33:27.957Z,86.3
2022-11-09T16:39:06.164Z,84.7
2022-11-09T16:44:41.007Z,85.5
2022-11-09T16:50:16.076Z,85.4
2022-11-09T16:55:50.999Z,87.1
2022-11-09T17:01:25.924Z,87.4
2022-11-09T17:07:02.019Z,87.6
2022-11-09T17:12:38.314Z,87.4
2022-11-09T17:18:14.035Z,87.2
2022-11-09T17:23:49.051Z,86.7
2022-11-09T17:29:23.982Z,86.6
2022-11-09T17:35:01.139Z,88.3
2022-11-09T17:40:36.234Z,88.3
2022-11-09T17:46:11.071Z,88.3
2022-11-09T17:51:45.735Z,88.9
2022-11-09T17:57:21.759Z,88.1
2022-11-09T18:02:56.783Z,88
2022-11-09T18:08:32.134Z,85.6
2022-11-09T18:14:07.083Z,84.1
2022-11-09T18:19:42.649Z,83.3
2022-11-09T18:25:17.813Z,82.9
2022-11-09T18:30:57.017Z,82.4
2022-11-09T18:36:31.956Z,82
2022-11-09T18:42:06.607Z,81.5
2022-11-09T18:48:06.525Z,81.2
2022-11-09T18:53:39.004Z,81.1
2022-11-09T18:59:13.773Z,81
2022-11-09T19:04:48.591Z,81.1
2022-11-09T19:10:24.562Z,81
2022-11-09T19:16:00.294Z,81
2022-11-09T19:21:36.536Z,81
2022-11-09T19:27:11.633Z,81.1
2022-11-09T19:32:46.429Z,81.1
2022-11-09T19:38:22.374Z,81.1
2022-11-09T19:43:59.267Z,81.3
2022-11-09T19:49:33.998Z,81.1
2022-11-09T19:55:08.844Z,81.1
2022-11-09T20:00:45.072Z,81.1
2022-11-09T20:06:21.006Z,81.1
2022-11-09T20:11:56.473Z,81
2022-11-09T20:17:32.990Z,81
2022-11-09T20:23:07.993Z,81
2022-11-09T20:28:42.793Z,81
2022-11-09T20:34:18.109Z,81.1
2022-11-09T20:39:54.333Z,81.2
2022-11-09T20:45:30.516Z,81.1
2022-11-09T20:51:05.451Z,80.9
2022-11-09T20:56:40.730Z,80.9
2022-11-09T21:02:16.091Z,80.8
2022-11-09T21:07:52.649Z,80.7
2022-11-09T21:13:28.801Z,80.7
2022-11-09T21:19:05.572Z,80.8
2022-11-09T21:24:40.626Z,81
2022-11-09T21:30:16.097Z,80.9
2022-11-09T21:35:51.790Z,80.9
2022-11-09T21:41:29.819Z,80.9
2022-11-09T21:47:31.945Z,80.7
2022-11-09T21:53:06.424Z,80.7
2022-11-09T21:58:42.281Z,80.6
2022-11-09T22:04:17.379Z,80.5
2022-11-09T22:10:11.239Z,80.5
2022-11-09T22:15:46.877Z,80.7
2022-11-09T22:21:21.628Z,80.6
2022-11-09T22:26:56.712Z,80.5
2022-11-09T22:32:31.880Z,80.3
2022-11-09T22:38:06.944Z,80.2
2022-11-09T22:43:41.838Z,80.1
2022-11-09T22:49:38.644Z,80
2022-11-09T22:55:11.302Z,80.2
2022-11-09T23:00:46.308Z,80.2
2022-11-09T23:06:21.363Z,80.2
2022-11-09T23:11:56.479Z,79.9
2022-11-09T23:17:31.275Z,79.3
2022-11-09T23:23:07.166Z,78.9
2022-11-09T23:28:41.909Z,78.6
2022-11-09T23:34:25.539Z,78.2
2022-11-09T23:40:00.306Z,78.1
2022-11-09T23:45:36.008Z,78.2
2022-11-09T23:51:11.019Z,78.2
2022-11-09T23:56:45.953Z,78.1
